sensor_id;sensor_type;location;lat;lon;timestamp;temperature;humidity
32293;DHT22;43233;48.608;8.838;2023-02-27T00:01:45;-3.10;64.90
32293;DHT22;43233;48.608;8.838;2023-02-27T00:04:11;-3.10;65.40
32293;DHT22;43233;48.608;8.838;2023-02-27T00:06:36;-3.10;65.20
32293;DHT22;43233;48.608;8.838;2023-02-27T00:09:02;-3.10;65.80
32293;DHT22;43233;48.608;8.838;2023-02-27T00:11:28;-3.10;66.00
32293;DHT22;43233;48.608;8.838;2023-02-27T00:13:54;-3.20;66.50
32293;DHT22;43233;48.608;8.838;2023-02-27T00:16:19;-3.20;66.70
32293;DHT22;43233;48.608;8.838;2023-02-27T00:18:45;-3.20;66.80
32293;DHT22;43233;48.608;8.838;2023-02-27T00:21:10;-3.20;67.20
32293;DHT22;43233;48.608;8.838;2023-02-27T00:23:36;-3.20;67.20
32293;DHT22;43233;48.608;8.838;2023-02-27T00:26:02;-3.30;67.80
32293;DHT22;43233;48.608;8.838;2023-02-27T00:28:28;-3.30;68.10
32293;DHT22;43233;48.608;8.838;2023-02-27T00:30:54;-3.30;68.30
32293;DHT22;43233;48.608;8.838;2023-02-27T00:33:20;-3.20;68.30
32293;DHT22;43233;48.608;8.838;2023-02-27T00:35:57;-3.20;68.50
32293;DHT22;43233;48.608;8.838;2023-02-27T00:38:23;-3.20;68.80
32293;DHT22;43233;48.608;8.838;2023-02-27T00:40:48;-3.20;68.90
32293;DHT22;43233;48.608;8.838;2023-02-27T00:43:14;-3.20;69.10
32293;DHT22;43233;48.608;8.838;2023-02-27T00:45:39;-3.30;69.60
32293;DHT22;43233;48.608;8.838;2023-02-27T00:48:05;-3.30;69.60
32293;DHT22;43233;48.608;8.838;2023-02-27T00:50:31;-3.30;69.90
32293;DHT22;43233;48.608;8.838;2023-02-27T00:52:56;-3.30;70.00
32293;DHT22;43233;48.608;8.838;2023-02-27T00:55:22;-3.30;70.00
32293;DHT22;43233;48.608;8.838;2023-02-27T00:57:47;-3.30;70.10
32293;DHT22;43233;48.608;8.838;2023-02-27T01:00:13;-3.30;70.20
32293;DHT22;43233;48.608;8.838;2023-02-27T01:02:39;-3.30;70.50
32293;DHT22;43233;48.608;8.838;2023-02-27T01:05:05;-3.30;70.50
32293;DHT22;43233;48.608;8.838;2023-02-27T01:07:31;-3.20;70.50
32293;DHT22;43233;48.608;8.838;2023-02-27T01:09:57;-3.20;70.80
32293;DHT22;43233;48.608;8.838;2023-02-27T01:12:23;-3.20;70.80
32293;DHT22;43233;48.608;8.838;2023-02-27T01:14:49;-3.20;70.70
32293;DHT22;43233;48.608;8.838;2023-02-27T01:17:14;-3.30;71.40
32293;DHT22;43233;48.608;8.838;2023-02-27T01:19:40;-3.30;71.50
32293;DHT22;43233;48.608;8.838;2023-02-27T01:22:05;-3.30;71.80
32293;DHT22;43233;48.608;8.838;2023-02-27T01:24:31;-3.30;71.50
32293;DHT22;43233;48.608;8.838;2023-02-27T01:26:57;-3.30;71.60
32293;DHT22;43233;48.608;8.838;2023-02-27T01:29:23;-3.30;71.30
32293;DHT22;43233;48.608;8.838;2023-02-27T01:31:49;-3.30;70.60
32293;DHT22;43233;48.608;8.838;2023-02-27T01:34:15;-3.30;70.60
32293;DHT22;43233;48.608;8.838;2023-02-27T01:36:41;-3.30;70.60
32293;DHT22;43233;48.608;8.838;2023-02-27T01:39:07;-3.30;70.60
32293;DHT22;43233;48.608;8.838;2023-02-27T01:41:33;-3.30;70.70
32293;DHT22;43233;48.608;8.838;2023-02-27T01:44:04;-3.30;70.80
32293;DHT22;43233;48.608;8.838;2023-02-27T01:46:31;-3.30;71.20
32293;DHT22;43233;48.608;8.838;2023-02-27T01:51:36;-3.40;71.80
32293;DHT22;43233;48.608;8.838;2023-02-27T01:54:04;-3.40;71.30
32293;DHT22;43233;48.608;8.838;2023-02-27T01:56:31;-3.30;71.20
32293;DHT22;43233;48.608;8.838;2023-02-27T01:58:59;-3.30;71.10
32293;DHT22;43233;48.608;8.838;2023-02-27T02:01:26;-3.30;70.80
32293;DHT22;43233;48.608;8.838;2023-02-27T02:06:29;-3.20;70.80
32293;DHT22;43233;48.608;8.838;2023-02-27T02:08:57;-3.30;71.10
32293;DHT22;43233;48.608;8.838;2023-02-27T02:11:25;-3.20;70.80
32293;DHT22;43233;48.608;8.838;2023-02-27T02:13:55;-3.20;71.10
32293;DHT22;43233;48.608;8.838;2023-02-27T02:19:03;-3.30;71.70
32293;DHT22;43233;48.608;8.838;2023-02-27T02:41:27;-3.30;67.60
32293;DHT22;43233;48.608;8.838;2023-02-27T02:49:15;-3.40;70.70
32293;DHT22;43233;48.608;8.838;2023-02-27T02:52:01;-3.30;71.00
32293;DHT22;43233;48.608;8.838;2023-02-27T02:57:11;-3.30;71.60
32293;DHT22;43233;48.608;8.838;2023-02-27T02:59:49;-3.40;72.00
32293;DHT22;43233;48.608;8.838;2023-02-27T03:02:21;-3.40;71.70
32293;DHT22;43233;48.608;8.838;2023-02-27T03:04:57;-3.30;71.90
32293;DHT22;43233;48.608;8.838;2023-02-27T03:07:34;-3.40;72.50
32293;DHT22;43233;48.608;8.838;2023-02-27T03:10:10;-3.40;73.00
32293;DHT22;43233;48.608;8.838;2023-02-27T03:12:41;-3.50;73.40
32293;DHT22;43233;48.608;8.838;2023-02-27T03:20:10;-3.40;73.90
32293;DHT22;43233;48.608;8.838;2023-02-27T03:22:42;-3.50;74.50
32293;DHT22;43233;48.608;8.838;2023-02-27T03:25:11;-3.50;75.00
32293;DHT22;43233;48.608;8.838;2023-02-27T03:27:44;-3.50;75.60
32293;DHT22;43233;48.608;8.838;2023-02-27T03:30:17;-3.50;74.60
32293;DHT22;43233;48.608;8.838;2023-02-27T03:32:53;-3.50;75.00
32293;DHT22;43233;48.608;8.838;2023-02-27T03:35:23;-3.60;75.40
32293;DHT22;43233;48.608;8.838;2023-02-27T03:37:59;-3.50;75.50
32293;DHT22;43233;48.608;8.838;2023-02-27T03:45:34;-3.60;77.00
32293;DHT22;43233;48.608;8.838;2023-02-27T03:48:05;-3.60;77.90
32293;DHT22;43233;48.608;8.838;2023-02-27T03:50:34;-3.50;78.10
32293;DHT22;43233;48.608;8.838;2023-02-27T03:53:06;-3.60;78.50
32293;DHT22;43233;48.608;8.838;2023-02-27T03:55:38;-3.50;79.10
32293;DHT22;43233;48.608;8.838;2023-02-27T03:58:04;-3.40;78.80
32293;DHT22;43233;48.608;8.838;2023-02-27T04:00:31;-3.40;78.70
32293;DHT22;43233;48.608;8.838;2023-02-27T04:02:59;-3.50;78.80
32293;DHT22;43233;48.608;8.838;2023-02-27T04:05:26;-3.50;79.20
32293;DHT22;43233;48.608;8.838;2023-02-27T04:08:21;-3.40;79.30
32293;DHT22;43233;48.608;8.838;2023-02-27T04:11:14;-3.40;79.40
32293;DHT22;43233;48.608;8.838;2023-02-27T04:14:02;-3.50;80.20
32293;DHT22;43233;48.608;8.838;2023-02-27T04:16:59;-3.50;80.90
32293;DHT22;43233;48.608;8.838;2023-02-27T04:22:31;-3.40;70.80
32293;DHT22;43233;48.608;8.838;2023-02-27T04:27:42;-3.50;68.60
32293;DHT22;43233;48.608;8.838;2023-02-27T04:30:28;-3.50;68.40
32293;DHT22;43233;48.608;8.838;2023-02-27T04:35:38;-3.40;67.80
32293;DHT22;43233;48.608;8.838;2023-02-27T04:41:43;-3.50;68.60
32293;DHT22;43233;48.608;8.838;2023-02-27T04:44:11;-3.50;68.80
32293;DHT22;43233;48.608;8.838;2023-02-27T04:46:41;-3.50;68.50
32293;DHT22;43233;48.608;8.838;2023-02-27T04:49:12;-3.50;68.80
32293;DHT22;43233;48.608;8.838;2023-02-27T04:52:01;-3.50;69.10
32293;DHT22;43233;48.608;8.838;2023-02-27T04:54:40;-3.50;69.50
32293;DHT22;43233;48.608;8.838;2023-02-27T04:57:11;-3.60;68.90
32293;DHT22;43233;48.608;8.838;2023-02-27T04:59:41;-3.50;69.10
32293;DHT22;43233;48.608;8.838;2023-02-27T05:02:17;-3.60;69.10
32293;DHT22;43233;48.608;8.838;2023-02-27T05:04:49;-3.60;69.20
32293;DHT22;43233;48.608;8.838;2023-02-27T05:07:20;-3.50;69.20
32293;DHT22;43233;48.608;8.838;2023-02-27T05:10:07;-3.50;69.10
32293;DHT22;43233;48.608;8.838;2023-02-27T05:12:45;-3.50;68.80
32293;DHT22;43233;48.608;8.838;2023-02-27T05:15:13;-3.50;69.20
32293;DHT22;43233;48.608;8.838;2023-02-27T05:17:42;-3.50;69.50
32293;DHT22;43233;48.608;8.838;2023-02-27T05:20:10;-3.50;69.20
32293;DHT22;43233;48.608;8.838;2023-02-27T05:23:01;-3.50;69.20
32293;DHT22;43233;48.608;8.838;2023-02-27T05:25:47;-3.60;69.20
32293;DHT22;43233;48.608;8.838;2023-02-27T05:28:23;-3.60;69.40
32293;DHT22;43233;48.608;8.838;2023-02-27T05:33:44;-3.60;69.60
32293;DHT22;43233;48.608;8.838;2023-02-27T05:36:17;-3.60;69.90
32293;DHT22;43233;48.608;8.838;2023-02-27T05:38:57;-3.70;69.90
32293;DHT22;43233;48.608;8.838;2023-02-27T05:44:22;-3.60;69.80
32293;DHT22;43233;48.608;8.838;2023-02-27T05:46:58;-3.60;69.60
32293;DHT22;43233;48.608;8.838;2023-02-27T05:49:36;-3.60;69.60
32293;DHT22;43233;48.608;8.838;2023-02-27T05:52:04;-3.60;69.50
32293;DHT22;43233;48.608;8.838;2023-02-27T05:54:41;-3.60;69.40
32293;DHT22;43233;48.608;8.838;2023-02-27T05:57:11;-3.60;69.50
32293;DHT22;43233;48.608;8.838;2023-02-27T05:59:56;-3.60;69.40
32293;DHT22;43233;48.608;8.838;2023-02-27T06:02:24;-3.60;69.30
32293;DHT22;43233;48.608;8.838;2023-02-27T06:04:50;-3.60;69.60
32293;DHT22;43233;48.608;8.838;2023-02-27T06:07:15;-3.60;69.30
32293;DHT22;43233;48.608;8.838;2023-02-27T06:09:43;-3.60;69.50
32293;DHT22;43233;48.608;8.838;2023-02-27T06:12:09;-3.60;69.40
32293;DHT22;43233;48.608;8.838;2023-02-27T06:14:35;-3.70;69.80
32293;DHT22;43233;48.608;8.838;2023-02-27T06:17:00;-3.80;70.10
32293;DHT22;43233;48.608;8.838;2023-02-27T06:19:26;-3.80;70.20
32293;DHT22;43233;48.608;8.838;2023-02-27T06:21:51;-3.80;70.40
32293;DHT22;43233;48.608;8.838;2023-02-27T06:24:17;-3.80;70.30
32293;DHT22;43233;48.608;8.838;2023-02-27T06:26:43;-3.80;70.50
32293;DHT22;43233;48.608;8.838;2023-02-27T06:29:08;-3.80;70.60
32293;DHT22;43233;48.608;8.838;2023-02-27T06:31:34;-3.80;70.70
32293;DHT22;43233;48.608;8.838;2023-02-27T06:33:59;-3.80;70.50
32293;DHT22;43233;48.608;8.838;2023-02-27T06:36:25;-3.80;70.40
32293;DHT22;43233;48.608;8.838;2023-02-27T06:38:53;-3.90;71.10
32293;DHT22;43233;48.608;8.838;2023-02-27T06:41:18;-3.80;70.90
32293;DHT22;43233;48.608;8.838;2023-02-27T06:43:44;-3.90;71.20
32293;DHT22;43233;48.608;8.838;2023-02-27T06:46:10;-3.90;71.20
32293;DHT22;43233;48.608;8.838;2023-02-27T06:48:35;-3.90;71.50
32293;DHT22;43233;48.608;8.838;2023-02-27T06:51:01;-3.90;71.80
32293;DHT22;43233;48.608;8.838;2023-02-27T06:53:28;-3.90;72.00
32293;DHT22;43233;48.608;8.838;2023-02-27T06:55:53;-3.90;71.90
32293;DHT22;43233;48.608;8.838;2023-02-27T06:58:19;-3.80;71.90
32293;DHT22;43233;48.608;8.838;2023-02-27T07:00:45;-3.80;72.00
32293;DHT22;43233;48.608;8.838;2023-02-27T07:03:11;-3.80;72.00
32293;DHT22;43233;48.608;8.838;2023-02-27T07:05:37;-3.70;72.20
32293;DHT22;43233;48.608;8.838;2023-02-27T07:08:02;-3.70;72.00
32293;DHT22;43233;48.608;8.838;2023-02-27T07:10:29;-3.70;71.80
32293;DHT22;43233;48.608;8.838;2023-02-27T07:12:55;-3.60;71.80
32293;DHT22;43233;48.608;8.838;2023-02-27T07:15:21;-3.50;71.60
32293;DHT22;43233;48.608;8.838;2023-02-27T07:17:46;-3.40;71.40
32293;DHT22;43233;48.608;8.838;2023-02-27T07:20:12;-3.40;71.20
32293;DHT22;43233;48.608;8.838;2023-02-27T07:22:39;-3.30;71.00
32293;DHT22;43233;48.608;8.838;2023-02-27T07:25:06;-3.20;70.60
32293;DHT22;43233;48.608;8.838;2023-02-27T07:27:32;-3.20;69.90
32293;DHT22;43233;48.608;8.838;2023-02-27T07:29:57;-3.10;69.70
32293;DHT22;43233;48.608;8.838;2023-02-27T07:32:23;-3.00;69.50
32293;DHT22;43233;48.608;8.838;2023-02-27T07:34:49;-2.90;69.00
32293;DHT22;43233;48.608;8.838;2023-02-27T07:37:15;-2.80;68.20
32293;DHT22;43233;48.608;8.838;2023-02-27T07:39:40;-2.80;68.20
32293;DHT22;43233;48.608;8.838;2023-02-27T07:42:06;-2.60;67.40
32293;DHT22;43233;48.608;8.838;2023-02-27T07:44:32;-2.60;67.00
32293;DHT22;43233;48.608;8.838;2023-02-27T07:46:58;-2.50;66.50
32293;DHT22;43233;48.608;8.838;2023-02-27T07:49:24;-2.40;65.60
32293;DHT22;43233;48.608;8.838;2023-02-27T07:51:49;-2.30;65.90
32293;DHT22;43233;48.608;8.838;2023-02-27T07:54:15;-2.20;65.00
32293;DHT22;43233;48.608;8.838;2023-02-27T07:56:40;-2.10;64.30
32293;DHT22;43233;48.608;8.838;2023-02-27T07:59:06;-2.00;64.00
32293;DHT22;43233;48.608;8.838;2023-02-27T08:01:32;-2.00;63.20
32293;DHT22;43233;48.608;8.838;2023-02-27T08:03:57;-1.80;62.40
32293;DHT22;43233;48.608;8.838;2023-02-27T08:06:23;-1.80;61.60
32293;DHT22;43233;48.608;8.838;2023-02-27T08:08:49;-1.70;61.00
32293;DHT22;43233;48.608;8.838;2023-02-27T08:11:15;-1.70;61.20
32293;DHT22;43233;48.608;8.838;2023-02-27T08:13:41;-1.70;60.50
32293;DHT22;43233;48.608;8.838;2023-02-27T08:16:07;-1.60;60.10
32293;DHT22;43233;48.608;8.838;2023-02-27T08:18:32;-1.50;59.80
32293;DHT22;43233;48.608;8.838;2023-02-27T08:20:58;-1.30;59.40
32293;DHT22;43233;48.608;8.838;2023-02-27T08:23:24;-1.20;59.50
32293;DHT22;43233;48.608;8.838;2023-02-27T08:25:50;-1.20;58.50
32293;DHT22;43233;48.608;8.838;2023-02-27T08:28:15;-1.10;57.80
32293;DHT22;43233;48.608;8.838;2023-02-27T08:30:42;-1.00;57.80
32293;DHT22;43233;48.608;8.838;2023-02-27T08:33:08;-0.90;58.00
32293;DHT22;43233;48.608;8.838;2023-02-27T08:35:34;-0.90;56.60
32293;DHT22;43233;48.608;8.838;2023-02-27T08:37:59;-0.80;56.60
32293;DHT22;43233;48.608;8.838;2023-02-27T08:40:25;-0.70;55.60
32293;DHT22;43233;48.608;8.838;2023-02-27T08:42:51;-0.60;55.60
32293;DHT22;43233;48.608;8.838;2023-02-27T08:45:16;-0.50;56.10
32293;DHT22;43233;48.608;8.838;2023-02-27T08:47:43;-0.40;55.60
32293;DHT22;43233;48.608;8.838;2023-02-27T08:50:10;-0.20;54.30
32293;DHT22;43233;48.608;8.838;2023-02-27T08:52:39;-0.10;54.70
32293;DHT22;43233;48.608;8.838;2023-02-27T08:55:05;-0.10;53.90
32293;DHT22;43233;48.608;8.838;2023-02-27T08:57:31;0.00;54.30
32293;DHT22;43233;48.608;8.838;2023-02-27T08:59:56;0.10;54.10
32293;DHT22;43233;48.608;8.838;2023-02-27T09:02:22;0.20;53.00
32293;DHT22;43233;48.608;8.838;2023-02-27T09:04:51;0.20;53.70
32293;DHT22;43233;48.608;8.838;2023-02-27T09:07:16;0.40;52.80
32293;DHT22;43233;48.608;8.838;2023-02-27T09:09:42;0.40;52.70
32293;DHT22;43233;48.608;8.838;2023-02-27T09:12:08;0.50;52.20
32293;DHT22;43233;48.608;8.838;2023-02-27T09:14:33;0.60;50.40
32293;DHT22;43233;48.608;8.838;2023-02-27T09:16:59;0.70;51.80
32293;DHT22;43233;48.608;8.838;2023-02-27T09:19:24;0.70;50.10
32293;DHT22;43233;48.608;8.838;2023-02-27T09:21:50;0.80;50.20
32293;DHT22;43233;48.608;8.838;2023-02-27T09:24:16;0.90;50.10
32293;DHT22;43233;48.608;8.838;2023-02-27T09:26:42;1.00;48.50
32293;DHT22;43233;48.608;8.838;2023-02-27T09:29:07;1.10;47.60
32293;DHT22;43233;48.608;8.838;2023-02-27T09:31:33;1.20;47.50
32293;DHT22;43233;48.608;8.838;2023-02-27T09:33:59;1.30;47.20
32293;DHT22;43233;48.608;8.838;2023-02-27T09:36:26;1.30;47.20
32293;DHT22;43233;48.608;8.838;2023-02-27T09:38:52;1.50;47.40
32293;DHT22;43233;48.608;8.838;2023-02-27T09:44:35;1.70;46.20
32293;DHT22;43233;48.608;8.838;2023-02-27T09:47:04;1.80;46.90
32293;DHT22;43233;48.608;8.838;2023-02-27T09:49:34;1.90;45.00
32293;DHT22;43233;48.608;8.838;2023-02-27T09:52:05;2.00;44.00
32293;DHT22;43233;48.608;8.838;2023-02-27T09:54:32;2.20;42.40
32293;DHT22;43233;48.608;8.838;2023-02-27T09:57:02;2.10;42.40
32293;DHT22;43233;48.608;8.838;2023-02-27T09:59:34;2.00;43.40
32293;DHT22;43233;48.608;8.838;2023-02-27T10:02:04;2.00;44.20
32293;DHT22;43233;48.608;8.838;2023-02-27T10:04:42;2.20;42.70
32293;DHT22;43233;48.608;8.838;2023-02-27T10:07:36;2.40;42.20
32293;DHT22;43233;48.608;8.838;2023-02-27T10:11:14;2.50;42.30
32293;DHT22;43233;48.608;8.838;2023-02-27T10:15:59;2.70;40.80
32293;DHT22;43233;48.608;8.838;2023-02-27T10:18:39;2.80;39.20
32293;DHT22;43233;48.608;8.838;2023-02-27T10:21:09;2.80;38.70
32293;DHT22;43233;48.608;8.838;2023-02-27T10:23:42;3.00;39.60
32293;DHT22;43233;48.608;8.838;2023-02-27T10:26:21;3.00;37.20
32293;DHT22;43233;48.608;8.838;2023-02-27T10:28:48;3.10;39.00
32293;DHT22;43233;48.608;8.838;2023-02-27T10:31:17;3.20;37.40
32293;DHT22;43233;48.608;8.838;2023-02-27T10:33:46;3.30;38.90
32293;DHT22;43233;48.608;8.838;2023-02-27T10:36:14;3.40;37.60
32293;DHT22;43233;48.608;8.838;2023-02-27T10:38:42;3.60;37.60
32293;DHT22;43233;48.608;8.838;2023-02-27T10:41:11;3.80;35.80
32293;DHT22;43233;48.608;8.838;2023-02-27T10:43:39;3.90;36.40
32293;DHT22;43233;48.608;8.838;2023-02-27T10:46:25;4.10;35.20
32293;DHT22;43233;48.608;8.838;2023-02-27T10:48:51;4.10;34.90
32293;DHT22;43233;48.608;8.838;2023-02-27T10:51:30;4.10;33.80
32293;DHT22;43233;48.608;8.838;2023-02-27T10:56:50;3.90;33.90
32293;DHT22;43233;48.608;8.838;2023-02-27T11:02:02;4.10;33.30
32293;DHT22;43233;48.608;8.838;2023-02-27T11:04:35;4.20;33.10
32293;DHT22;43233;48.608;8.838;2023-02-27T11:07:04;4.40;33.10
32293;DHT22;43233;48.608;8.838;2023-02-27T11:09:32;4.50;33.70
32293;DHT22;43233;48.608;8.838;2023-02-27T11:12:27;4.60;33.20
32293;DHT22;43233;48.608;8.838;2023-02-27T11:14:56;4.70;32.30
32293;DHT22;43233;48.608;8.838;2023-02-27T11:17:33;4.70;33.40
32293;DHT22;43233;48.608;8.838;2023-02-27T11:20:00;4.60;33.10
32293;DHT22;43233;48.608;8.838;2023-02-27T11:22:29;4.80;35.10
32293;DHT22;43233;48.608;8.838;2023-02-27T11:25:30;5.00;36.20
32293;DHT22;43233;48.608;8.838;2023-02-27T11:28:24;5.30;31.80
32293;DHT22;43233;48.608;8.838;2023-02-27T11:31:03;5.30;30.80
32293;DHT22;43233;48.608;8.838;2023-02-27T11:33:50;5.30;31.40
32293;DHT22;43233;48.608;8.838;2023-02-27T11:36:16;5.40;31.00
32293;DHT22;43233;48.608;8.838;2023-02-27T11:38:49;5.40;31.10
32293;DHT22;43233;48.608;8.838;2023-02-27T11:41:17;5.50;31.40
32293;DHT22;43233;48.608;8.838;2023-02-27T11:43:48;5.50;30.50
32293;DHT22;43233;48.608;8.838;2023-02-27T11:46:23;5.40;31.00
32293;DHT22;43233;48.608;8.838;2023-02-27T11:54:51;4.70;30.90
32293;DHT22;43233;48.608;8.838;2023-02-27T12:00:04;4.60;31.50
32293;DHT22;43233;48.608;8.838;2023-02-27T12:05:40;4.20;32.00
32293;DHT22;43233;48.608;8.838;2023-02-27T12:08:17;4.30;33.10
32293;DHT22;43233;48.608;8.838;2023-02-27T12:13:21;4.30;32.80
32293;DHT22;43233;48.608;8.838;2023-02-27T12:16:17;4.20;32.30
32293;DHT22;43233;48.608;8.838;2023-02-27T12:19:30;4.10;32.80
32293;DHT22;43233;48.608;8.838;2023-02-27T12:21:40;4.10;32.50
32293;DHT22;43233;48.608;8.838;2023-02-27T12:24:15;4.40;33.00
32293;DHT22;43233;48.608;8.838;2023-02-27T12:26:46;4.60;31.80
32293;DHT22;43233;48.608;8.838;2023-02-27T12:32:17;4.60;32.00
32293;DHT22;43233;48.608;8.838;2023-02-27T12:34:52;4.30;32.30
32293;DHT22;43233;48.608;8.838;2023-02-27T12:37:26;4.20;32.90
32293;DHT22;43233;48.608;8.838;2023-02-27T12:39:58;4.40;34.30
32293;DHT22;43233;48.608;8.838;2023-02-27T12:51:30;4.80;31.30
32293;DHT22;43233;48.608;8.838;2023-02-27T12:54:18;4.90;31.50
32293;DHT22;43233;48.608;8.838;2023-02-27T13:07:56;5.40;31.30
32293;DHT22;43233;48.608;8.838;2023-02-27T13:10:32;6.00;30.20
32293;DHT22;43233;48.608;8.838;2023-02-27T13:15:53;7.00;28.70
32293;DHT22;43233;48.608;8.838;2023-02-27T13:18:52;7.90;27.00
32293;DHT22;43233;48.608;8.838;2023-02-27T13:26:49;7.70;26.40
32293;DHT22;43233;48.608;8.838;2023-02-27T13:29:17;7.60;26.90
32293;DHT22;43233;48.608;8.838;2023-02-27T13:34:36;6.90;26.60
32293;DHT22;43233;48.608;8.838;2023-02-27T13:37:07;6.60;26.80
32293;DHT22;43233;48.608;8.838;2023-02-27T13:45:44;6.70;27.70
32293;DHT22;43233;48.608;8.838;2023-02-27T13:47:49;6.60;28.70
32293;DHT22;43233;48.608;8.838;2023-02-27T13:52:47;5.90;27.70
32293;DHT22;43233;48.608;8.838;2023-02-27T13:57:56;4.60;29.00
32293;DHT22;43233;48.608;8.838;2023-02-27T14:00:27;3.90;30.90
32293;DHT22;43233;48.608;8.838;2023-02-27T14:03:15;3.60;31.80
32293;DHT22;43233;48.608;8.838;2023-02-27T14:05:44;3.40;31.80
32293;DHT22;43233;48.608;8.838;2023-02-27T14:10:37;3.50;33.50
32293;DHT22;43233;48.608;8.838;2023-02-27T14:13:03;3.60;32.80
32293;DHT22;43233;48.608;8.838;2023-02-27T14:17:56;3.80;32.70
32293;DHT22;43233;48.608;8.838;2023-02-27T14:25:49;3.80;31.90
32293;DHT22;43233;48.608;8.838;2023-02-27T14:33:48;3.70;32.40
32293;DHT22;43233;48.608;8.838;2023-02-27T14:38:46;3.30;32.40
32293;DHT22;43233;48.608;8.838;2023-02-27T14:43:54;2.80;33.10
32293;DHT22;43233;48.608;8.838;2023-02-27T14:48:59;2.60;33.50
32293;DHT22;43233;48.608;8.838;2023-02-27T14:51:25;2.60;34.00
32293;DHT22;43233;48.608;8.838;2023-02-27T14:54:13;2.50;34.90
32293;DHT22;43233;48.608;8.838;2023-02-27T14:56:40;2.30;35.10
32293;DHT22;43233;48.608;8.838;2023-02-27T14:59:21;2.30;35.30
32293;DHT22;43233;48.608;8.838;2023-02-27T15:01:47;2.30;35.90
32293;DHT22;43233;48.608;8.838;2023-02-27T15:04:17;2.40;35.50
32293;DHT22;43233;48.608;8.838;2023-02-27T15:06:47;2.50;35.60
32293;DHT22;43233;48.608;8.838;2023-02-27T15:09:21;2.50;35.30
32293;DHT22;43233;48.608;8.838;2023-02-27T15:11:52;2.60;35.80
32293;DHT22;43233;48.608;8.838;2023-02-27T15:14:22;2.70;35.50
32293;DHT22;43233;48.608;8.838;2023-02-27T15:16:53;2.60;35.00
32293;DHT22;43233;48.608;8.838;2023-02-27T15:19:22;2.40;35.50
32293;DHT22;43233;48.608;8.838;2023-02-27T15:22:00;2.40;35.80
32293;DHT22;43233;48.608;8.838;2023-02-27T15:24:32;2.20;35.50
32293;DHT22;43233;48.608;8.838;2023-02-27T15:27:06;2.10;34.80
32293;DHT22;43233;48.608;8.838;2023-02-27T15:29:42;2.00;35.60
32293;DHT22;43233;48.608;8.838;2023-02-27T15:32:41;2.00;36.00
32293;DHT22;43233;48.608;8.838;2023-02-27T15:35:29;2.00;36.50
32293;DHT22;43233;48.608;8.838;2023-02-27T15:37:57;2.10;37.00
32293;DHT22;43233;48.608;8.838;2023-02-27T15:40:27;2.20;36.90
32293;DHT22;43233;48.608;8.838;2023-02-27T15:42:53;2.20;36.50
32293;DHT22;43233;48.608;8.838;2023-02-27T15:45:23;2.10;36.60
32293;DHT22;43233;48.608;8.838;2023-02-27T15:47:49;2.00;37.10
32293;DHT22;43233;48.608;8.838;2023-02-27T15:52:58;2.00;37.30
32293;DHT22;43233;48.608;8.838;2023-02-27T15:55:39;1.90;37.10
32293;DHT22;43233;48.608;8.838;2023-02-27T15:58:24;1.70;37.10
32293;DHT22;43233;48.608;8.838;2023-02-27T16:01:02;1.60;37.40
32293;DHT22;43233;48.608;8.838;2023-02-27T16:03:33;1.60;38.20
32293;DHT22;43233;48.608;8.838;2023-02-27T16:06:00;1.50;37.60
32293;DHT22;43233;48.608;8.838;2023-02-27T16:08:26;1.50;38.10
32293;DHT22;43233;48.608;8.838;2023-02-27T16:10:54;1.50;38.30
32293;DHT22;43233;48.608;8.838;2023-02-27T16:13:36;1.50;38.80
32293;DHT22;43233;48.608;8.838;2023-02-27T16:18:50;1.40;38.00
32293;DHT22;43233;48.608;8.838;2023-02-27T16:21:26;1.30;38.60
32293;DHT22;43233;48.608;8.838;2023-02-27T16:23:53;1.30;38.20
32293;DHT22;43233;48.608;8.838;2023-02-27T16:26:30;1.30;38.10
32293;DHT22;43233;48.608;8.838;2023-02-27T16:31:34;1.10;38.60
32293;DHT22;43233;48.608;8.838;2023-02-27T16:36:57;1.10;39.10
32293;DHT22;43233;48.608;8.838;2023-02-27T16:39:23;1.00;39.30
32293;DHT22;43233;48.608;8.838;2023-02-27T16:41:52;1.00;39.60
32293;DHT22;43233;48.608;8.838;2023-02-27T16:44:18;1.00;39.80
32293;DHT22;43233;48.608;8.838;2023-02-27T16:46:43;1.10;39.10
32293;DHT22;43233;48.608;8.838;2023-02-27T16:49:28;1.10;38.40
32293;DHT22;43233;48.608;8.838;2023-02-27T16:51:54;1.20;37.90
32293;DHT22;43233;48.608;8.838;2023-02-27T16:54:21;1.20;37.90
32293;DHT22;43233;48.608;8.838;2023-02-27T16:56:47;1.00;37.70
32293;DHT22;43233;48.608;8.838;2023-02-27T16:59:34;1.10;38.40
32293;DHT22;43233;48.608;8.838;2023-02-27T17:02:03;1.00;38.10
32293;DHT22;43233;48.608;8.838;2023-02-27T17:04:29;1.00;38.40
32293;DHT22;43233;48.608;8.838;2023-02-27T17:06:58;1.00;38.10
32293;DHT22;43233;48.608;8.838;2023-02-27T17:09:25;1.00;38.30
32293;DHT22;43233;48.608;8.838;2023-02-27T17:11:54;0.90;38.30
32293;DHT22;43233;48.608;8.838;2023-02-27T17:14:20;0.70;38.80
32293;DHT22;43233;48.608;8.838;2023-02-27T17:16:46;0.70;39.20
32293;DHT22;43233;48.608;8.838;2023-02-27T17:19:12;0.80;39.20
32293;DHT22;43233;48.608;8.838;2023-02-27T17:21:38;0.90;39.30
32293;DHT22;43233;48.608;8.838;2023-02-27T17:24:04;0.90;38.20
32293;DHT22;43233;48.608;8.838;2023-02-27T17:26:31;0.90;38.20
32293;DHT22;43233;48.608;8.838;2023-02-27T17:28:56;0.90;38.30
32293;DHT22;43233;48.608;8.838;2023-02-27T17:31:23;0.80;37.80
32293;DHT22;43233;48.608;8.838;2023-02-27T17:33:50;0.90;38.00
32293;DHT22;43233;48.608;8.838;2023-02-27T17:36:16;0.90;37.80
32293;DHT22;43233;48.608;8.838;2023-02-27T17:38:42;0.90;37.30
32293;DHT22;43233;48.608;8.838;2023-02-27T17:41:10;1.00;37.90
32293;DHT22;43233;48.608;8.838;2023-02-27T17:43:36;1.00;37.50
32293;DHT22;43233;48.608;8.838;2023-02-27T17:46:06;1.00;37.60
32293;DHT22;43233;48.608;8.838;2023-02-27T17:48:32;0.90;38.00
32293;DHT22;43233;48.608;8.838;2023-02-27T17:51:05;1.00;37.90
32293;DHT22;43233;48.608;8.838;2023-02-27T17:53:31;1.00;37.70
32293;DHT22;43233;48.608;8.838;2023-02-27T17:55:57;1.10;38.00
32293;DHT22;43233;48.608;8.838;2023-02-27T17:58:22;1.10;37.20
32293;DHT22;43233;48.608;8.838;2023-02-27T18:00:48;1.10;37.30
32293;DHT22;43233;48.608;8.838;2023-02-27T18:03:13;1.10;37.20
32293;DHT22;43233;48.608;8.838;2023-02-27T18:05:46;1.10;37.10
32293;DHT22;43233;48.608;8.838;2023-02-27T18:08:12;1.20;36.70
32293;DHT22;43233;48.608;8.838;2023-02-27T18:10:37;1.20;36.30
32293;DHT22;43233;48.608;8.838;2023-02-27T18:13:03;1.10;36.20
32293;DHT22;43233;48.608;8.838;2023-02-27T18:15:29;1.10;36.20
32293;DHT22;43233;48.608;8.838;2023-02-27T18:17:55;1.10;36.10
32293;DHT22;43233;48.608;8.838;2023-02-27T18:20:20;1.10;35.90
32293;DHT22;43233;48.608;8.838;2023-02-27T18:22:46;1.10;35.50
32293;DHT22;43233;48.608;8.838;2023-02-27T18:25:12;1.00;35.60
32293;DHT22;43233;48.608;8.838;2023-02-27T18:27:37;1.00;35.50
32293;DHT22;43233;48.608;8.838;2023-02-27T18:30:03;1.10;36.10
32293;DHT22;43233;48.608;8.838;2023-02-27T18:32:29;1.10;36.10
32293;DHT22;43233;48.608;8.838;2023-02-27T18:34:55;1.10;35.90
32293;DHT22;43233;48.608;8.838;2023-02-27T18:37:21;1.10;36.00
32293;DHT22;43233;48.608;8.838;2023-02-27T18:39:46;1.00;36.50
32293;DHT22;43233;48.608;8.838;2023-02-27T18:42:12;1.00;36.40
32293;DHT22;43233;48.608;8.838;2023-02-27T18:44:38;1.00;36.50